Time;durP1;ratioP1;P1;durP2;ratioP2;P2;SDS_P1;SDS_P2;PMS_P1;PMS_P2;Temp;Humidity;BMP_temperature;BMP_pressure;BME280_temperature;BME280_humidity;BME280_pressure;Samples;Min_cycle;Max_cycle;Signal;HPM_P1;HPM_P2
2021/12/23 00:01:30;;;;;;;42.15;33.60;;;;;;;-5.28;100.00;96069.34;5010865;28;24474;-72
2021/12/23 00:03:57;;;;;;;43.80;35.07;;;;;;;-5.42;100.00;96071.81;5011620;28;24814;-72
2021/12/23 00:06:23;;;;;;;40.75;33.25;;;;;;;-5.27;100.00;96067.66;5011012;28;24957;-72
2021/12/23 00:08:50;;;;;;;45.22;32.55;;;;;;;-5.21;100.00;96060.94;5011567;28;24452;-72
2021/12/23 00:11:16;;;;;;;39.92;33.03;;;;;;;-5.33;100.00;96060.91;5010845;28;24420;-72
2021/12/23 00:13:51;;;;;;;42.55;32.38;;;;;;;-5.30;100.00;96057.53;5010441;28;24810;-72
2021/12/23 00:16:19;;;;;;;45.78;33.80;;;;;;;-5.45;100.00;96050.75;5009988;28;24647;-72
2021/12/23 00:18:53;;;;;;;36.93;32.77;;;;;;;-5.48;100.00;96059.19;5010031;28;25056;-72
2021/12/23 00:24:04;;;;;;;39.28;31.90;;;;;;;-5.34;100.00;96056.69;5010217;28;24408;-72
2021/12/23 00:26:30;;;;;;;42.88;32.88;;;;;;;-5.33;100.00;96050.81;5009948;28;24448;-72
2021/12/23 00:28:59;;;;;;;41.87;33.57;;;;;;;-5.38;100.00;96037.31;5010278;28;24521;-72
2021/12/23 00:31:25;;;;;;;37.97;31.42;;;;;;;-5.38;100.00;96045.75;5013700;28;24424;-72
2021/12/23 00:33:52;;;;;;;39.30;31.63;;;;;;;-5.38;100.00;96037.31;5013740;28;24969;-72
2021/12/23 00:36:18;;;;;;;40.22;31.83;;;;;;;-5.41;100.00;96033.13;5013528;28;24957;-72
2021/12/23 00:38:49;;;;;;;37.42;30.55;;;;;;;-5.46;100.00;96031.41;5013692;28;24455;-72
2021/12/23 00:41:16;;;;;;;48.05;33.40;;;;;;;-5.54;100.00;96026.34;5013810;28;24478;-72
2021/12/23 00:43:42;;;;;;;44.05;33.15;;;;;;;-5.65;100.00;96028.81;5013345;28;24996;-72
2021/12/23 00:46:10;;;;;;;36.73;32.00;;;;;;;-5.63;100.00;96032.19;5013228;28;24426;-72
2021/12/23 00:48:39;;;;;;;41.17;33.30;;;;;;;-5.60;100.00;96031.34;5013681;28;24422;-72
2021/12/23 00:51:05;;;;;;;38.58;32.20;;;;;;;-5.57;100.00;96021.28;5013660;28;24446;-72
2021/12/23 00:53:36;;;;;;;36.30;31.13;;;;;;;-5.58;100.00;96017.06;5013619;28;24443;-72
2021/12/23 00:56:03;;;;;;;35.55;31.73;;;;;;;-5.77;100.00;96016.16;5013160;28;24490;-72
2021/12/23 00:58:30;;;;;;;44.92;31.45;;;;;;;-5.79;100.00;96010.25;5013237;28;24424;-73
2021/12/23 01:00:58;;;;;;;39.00;30.77;;;;;;;-5.86;100.00;96014.44;5013239;28;25020;-72
2021/12/23 01:03:26;;;;;;;41.17;31.88;;;;;;;-5.86;100.00;96006.00;5013375;28;24830;-72
2021/12/23 01:05:53;;;;;;;43.85;32.25;;;;;;;-5.80;100.00;96006.03;5013132;28;24471;-72
2021/12/23 01:08:19;;;;;;;40.75;32.00;;;;;;;-5.78;100.00;96004.38;5013176;28;24420;-72
2021/12/23 01:10:49;;;;;;;37.70;30.70;;;;;;;-5.67;100.00;95996.88;5013627;28;24427;-72
2021/12/23 01:13:17;;;;;;;41.40;32.47;;;;;;;-5.57;100.00;95998.56;5013033;28;24984;-72
2021/12/23 01:16:05;;;;;;;37.22;30.73;;;;;;;-5.57;100.00;95990.16;5012764;28;24961;-72
2021/12/23 01:18:41;;;;;;;34.90;31.10;;;;;;;-5.62;100.00;95985.94;5013099;28;24428;-72
2021/12/23 01:21:17;;;;;;;46.60;31.40;;;;;;;-5.61;100.00;95986.78;5012066;28;24444;-72
2021/12/23 01:23:46;;;;;;;42.70;32.15;;;;;;;-5.63;100.00;95984.25;5009516;28;24811;-72
2021/12/23 01:26:17;;;;;;;35.28;30.80;;;;;;;-5.72;100.00;95984.22;5011229;28;24440;-73
2021/12/23 01:28:44;;;;;;;37.30;30.50;;;;;;;-5.63;100.00;95981.72;5011754;28;24468;-71
2021/12/23 01:31:10;;;;;;;37.80;30.10;;;;;;;-5.74;100.00;95985.91;5012512;28;25018;-72
2021/12/23 01:33:38;;;;;;;39.72;30.88;;;;;;;-5.70;100.00;95980.03;5012682;28;25001;-71
2021/12/23 01:36:05;;;;;;;35.28;29.77;;;;;;;-5.59;100.00;95980.06;5013794;28;24433;-72
2021/12/23 01:38:32;;;;;;;40.42;30.92;;;;;;;-5.61;100.00;95964.06;5014522;28;24532;-73
2021/12/23 01:40:58;;;;;;;33.88;29.58;;;;;;;-5.60;100.00;95968.25;5012366;28;24498;-73
2021/12/23 01:43:25;;;;;;;36.67;29.35;;;;;;;-5.64;100.00;95967.41;5012436;28;24452;-72
2021/12/23 01:45:51;;;;;;;37.65;30.85;;;;;;;-5.72;100.00;95964.03;5012221;28;24432;-74
2021/12/23 01:48:19;;;;;;;37.70;30.83;;;;;;;-5.59;100.00;95957.34;5011615;28;24443;-73
2021/12/23 01:50:48;;;;;;;38.17;28.20;;;;;;;-5.54;100.00;95953.16;5007543;28;24436;-73
2021/12/23 01:53:16;;;;;;;41.17;30.08;;;;;;;-5.73;100.00;95952.25;4999484;28;24460;-71
2021/12/23 01:55:43;;;;;;;36.22;29.60;;;;;;;-5.77;100.00;95958.13;5012117;28;24420;-72
2021/12/23 01:58:12;;;;;;;42.70;30.23;;;;;;;-5.68;100.00;95949.75;5012338;28;24412;-74
2021/12/23 02:00:41;;;;;;;39.55;30.20;;;;;;;-5.74;100.00;95950.59;5012207;28;24510;-72
2021/12/23 02:03:07;;;;;;;38.40;29.80;;;;;;;-5.70;100.00;95934.63;5012167;28;24447;-72
2021/12/23 02:05:34;;;;;;;34.20;29.33;;;;;;;-5.73;100.00;95936.28;5003851;28;24440;-71
2021/12/23 02:08:02;;;;;;;37.20;30.83;;;;;;;-5.73;100.00;95931.25;5012229;28;24424;-72
2021/12/23 02:10:29;;;;;;;40.08;30.95;;;;;;;-5.78;100.00;95932.88;5012156;28;24436;-72
2021/12/23 02:12:56;;;;;;;35.17;30.60;;;;;;;-5.66;100.00;95933.78;5012128;28;24428;-72
2021/12/23 02:15:23;;;;;;;42.22;29.55;;;;;;;-5.81;100.00;95932.91;5011689;28;24424;-71
2021/12/23 02:17:50;;;;;;;37.85;30.23;;;;;;;-5.74;100.00;95932.94;5012281;28;24431;-72
2021/12/23 02:20:20;;;;;;;36.53;30.38;;;;;;;-5.81;100.00;95933.75;5011988;28;24429;-72
2021/12/23 02:22:47;;;;;;;44.80;30.70;;;;;;;-5.88;100.00;95942.13;5011926;28;24447;-71
2021/12/23 02:25:15;;;;;;;39.90;29.67;;;;;;;-5.90;100.00;95937.06;5011652;28;24879;-71
2021/12/23 02:27:43;;;;;;;35.00;29.07;;;;;;;-6.02;100.00;95932.00;5011835;28;24511;-71
2021/12/23 02:30:12;;;;;;;37.58;30.63;;;;;;;-5.93;100.00;95939.63;5011633;28;24790;-72
2021/12/23 02:32:39;;;;;;;38.10;30.08;;;;;;;-5.86;100.00;95927.81;5011782;28;24490;-73
2021/12/23 02:35:10;;;;;;;36.25;29.08;;;;;;;-5.92;100.00;95926.13;5011914;28;24420;-71
2021/12/23 02:37:38;;;;;;;42.17;29.50;;;;;;;-5.94;100.00;95916.91;5011770;28;24435;-71
2021/12/23 02:40:05;;;;;;;33.00;28.25;;;;;;;-5.94;100.00;95914.38;5011674;28;24482;-71
2021/12/23 02:42:32;;;;;;;36.90;28.83;;;;;;;-5.91;100.00;95912.69;5000156;28;24442;-72
2021/12/23 02:44:59;;;;;;;34.10;27.58;;;;;;;-5.97;100.00;95909.31;4992106;28;24480;-72
2021/12/23 02:47:26;;;;;;;33.05;28.73;;;;;;;-5.95;100.00;95905.97;4991638;28;24961;-72
2021/12/23 02:49:52;;;;;;;33.88;28.83;;;;;;;-5.97;100.00;95905.16;4992004;28;25066;-71
2021/12/23 02:52:19;;;;;;;31.23;26.63;;;;;;;-5.87;100.00;95899.25;4991308;28;24417;-72
2021/12/23 02:54:54;;;;;;;33.30;27.48;;;;;;;-5.74;100.00;95891.72;4991739;28;24811;-72
2021/12/23 02:57:21;;;;;;;32.35;27.80;;;;;;;-5.81;100.00;95895.91;4991327;28;24969;-71
2021/12/23 02:59:47;;;;;;;33.90;26.05;;;;;;;-5.74;100.00;95887.53;4999623;28;24826;-71
2021/12/23 03:02:14;;;;;;;32.85;27.00;;;;;;;-5.78;100.00;95893.41;4995667;28;24437;-73
2021/12/23 03:04:40;;;;;;;32.50;25.90;;;;;;;-5.81;100.00;95885.81;5010076;28;25024;-72
2021/12/23 03:07:07;;;;;;;31.65;25.30;;;;;;;-5.77;100.00;95894.22;5010425;28;24437;-72
2021/12/23 03:09:33;;;;;;;30.95;26.15;;;;;;;-5.71;100.00;95889.19;5011007;28;24957;-72
2021/12/23 03:12:01;;;;;;;30.48;25.65;;;;;;;-5.74;100.00;95874.91;5010827;28;24444;-71
2021/12/23 03:14:27;;;;;;;36.30;25.38;;;;;;;-5.76;100.00;95884.13;4998271;28;24429;-71
2021/12/23 03:16:54;;;;;;;28.15;23.98;;;;;;;-5.66;100.00;95878.28;4999719;28;24436;-71
2021/12/23 03:19:20;;;;;;;30.60;24.60;;;;;;;-5.66;100.00;95878.28;5011600;28;24970;-71
2021/12/23 03:21:47;;;;;;;30.67;24.08;;;;;;;-5.59;100.00;95869.03;5011229;28;24437;-71
2021/12/23 03:24:15;;;;;;;29.58;23.25;;;;;;;-5.51;100.00;95866.53;5010564;28;24452;-74
2021/12/23 03:26:41;;;;;;;25.90;20.98;;;;;;;-5.50;100.00;95869.03;5009311;28;24428;-71
2021/12/23 03:29:11;;;;;;;25.40;22.20;;;;;;;-5.49;100.00;95857.25;5010578;28;24443;-72
2021/12/23 03:31:38;;;;;;;26.35;21.65;;;;;;;-5.47;100.00;95848.03;5010761;28;24439;-71
2021/12/23 03:34:04;;;;;;;27.50;22.45;;;;;;;-5.54;100.00;95852.22;5011054;28;24483;-71
2021/12/23 03:36:31;;;;;;;25.25;22.25;;;;;;;-5.53;100.00;95851.38;5010783;28;24432;-72
2021/12/23 03:38:57;;;;;;;25.55;21.85;;;;;;;-5.50;100.00;95830.34;5010655;28;24417;-73
2021/12/23 03:41:24;;;;;;;29.33;23.42;;;;;;;-5.56;100.00;95828.69;5010137;28;24799;-71
2021/12/23 03:43:50;;;;;;;26.00;22.60;;;;;;;-5.61;100.00;95830.34;5011012;28;24448;-72
2021/12/23 03:46:18;;;;;;;26.35;23.58;;;;;;;-5.63;100.00;95829.50;5010219;28;24440;-72
2021/12/23 03:48:44;;;;;;;26.27;23.00;;;;;;;-5.74;100.00;95834.53;5010387;28;24475;-71
2021/12/23 03:51:11;;;;;;;27.27;23.35;;;;;;;-5.73;100.00;95835.38;5010033;28;24854;-73
2021/12/23 03:53:38;;;;;;;29.63;23.40;;;;;;;-5.81;100.00;95832.84;5010561;28;24498;-72
2021/12/23 03:56:05;;;;;;;26.67;23.50;;;;;;;-5.90;100.00;95841.22;5010263;28;24487;-71
2021/12/23 03:58:31;;;;;;;32.10;23.70;;;;;;;-5.78;100.00;95830.34;5010815;28;24957;-72
2021/12/23 04:00:59;;;;;;;28.60;23.90;;;;;;;-5.79;100.00;95827.78;5009809;28;24483;-71
2021/12/23 04:03:27;;;;;;;29.30;24.10;;;;;;;-5.88;100.00;95826.94;5010925;28;24460;-72
2021/12/23 04:05:53;;;;;;;31.35;22.85;;;;;;;-5.73;100.00;95830.34;5013698;28;24947;-71
2021/12/23 04:08:20;;;;;;;30.77;23.58;;;;;;;-5.73;100.00;95833.69;5014649;28;24436;-71
2021/12/23 04:10:46;;;;;;;28.77;22.83;;;;;;;-5.76;100.00;95833.69;5014600;28;24425;-72
2021/12/23 04:13:13;;;;;;;27.95;23.13;;;;;;;-5.81;100.00;95832.84;4995259;28;24428;-72
2021/12/23 04:15:39;;;;;;;25.17;22.40;;;;;;;-5.81;100.00;95819.41;4994569;28;24428;-72
2021/12/23 04:18:06;;;;;;;28.90;22.55;;;;;;;-5.70;100.00;95815.22;4995062;28;24432;-71
2021/12/23 04:20:45;;;;;;;31.42;22.75;;;;;;;-5.84;100.00;95805.94;5003916;28;24451;-71
2021/12/23 04:23:11;;;;;;;28.80;22.65;;;;;;;-5.76;100.00;95800.06;5000744;28;24448;-72
2021/12/23 04:25:38;;;;;;;24.15;21.25;;;;;;;-5.69;100.00;95789.97;5013883;28;24444;-74
2021/12/23 04:28:06;;;;;;;25.20;21.70;;;;;;;-5.77;100.00;95804.25;5013859;28;24977;-71
2021/12/23 04:30:33;;;;;;;26.00;21.90;;;;;;;-5.75;100.00;95799.19;5013829;28;25042;-71
2021/12/23 04:33:00;;;;;;;26.08;21.55;;;;;;;-5.72;100.00;95801.75;5013724;28;24490;-72
2021/12/23 04:35:26;;;;;;;33.22;23.05;;;;;;;-5.65;100.00;95785.75;4999116;28;24440;-71
2021/12/23 04:37:54;;;;;;;25.17;21.73;;;;;;;-5.63;100.00;95789.97;5013846;28;24456;-71
2021/12/23 04:40:20;;;;;;;27.25;21.48;;;;;;;-5.48;100.00;95794.19;5013350;28;24850;-71
2021/12/23 04:42:47;;;;;;;27.05;22.10;;;;;;;-5.55;100.00;95784.94;5013667;28;24436;-71
2021/12/23 04:45:14;;;;;;;30.58;22.40;;;;;;;-5.56;100.00;95778.22;5013215;28;24456;-71
2021/12/23 04:47:42;;;;;;;25.98;21.98;;;;;;;-5.56;100.00;95778.22;5013076;28;25322;-71
2021/12/23 04:50:11;;;;;;;28.65;23.05;;;;;;;-5.46;100.00;95776.50;5013253;28;24444;-71
2021/12/23 04:52:38;;;;;;;27.53;22.07;;;;;;;-5.53;100.00;95767.25;5013498;28;24527;-71
2021/12/23 04:55:08;;;;;;;30.38;23.77;;;;;;;-5.44;100.00;95768.09;5013364;28;24436;-72
2021/12/23 04:57:35;;;;;;;27.73;22.73;;;;;;;-5.54;100.00;95775.69;5013072;28;24433;-72
2021/12/23 05:00:02;;;;;;;26.63;22.23;;;;;;;-5.44;100.00;95774.84;5013143;28;24846;-72
2021/12/23 05:02:28;;;;;;;26.13;22.90;;;;;;;-5.42;100.00;95763.03;5013472;28;24436;-71
2021/12/23 05:04:54;;;;;;;28.38;23.08;;;;;;;-5.43;100.00;95756.31;5013194;28;24457;-72
2021/12/23 05:07:21;;;;;;;26.50;21.90;;;;;;;-5.47;100.00;95757.16;5012978;28;24444;-71
2021/12/23 05:09:47;;;;;;;26.80;22.63;;;;;;;-5.49;100.00;95757.16;5001494;28;24491;-72
2021/12/23 05:12:15;;;;;;;29.33;22.97;;;;;;;-5.56;100.00;95759.69;5008107;28;24432;-71
2021/12/23 05:14:42;;;;;;;29.85;23.42;;;;;;;-5.57;100.00;95770.63;5012391;28;24440;-72
2021/12/23 05:17:08;;;;;;;29.52;23.40;;;;;;;-5.69;100.00;95762.22;5012656;28;24428;-72
2021/12/23 05:19:35;;;;;;;28.52;24.17;;;;;;;-5.65;100.00;95768.09;5003980;28;24441;-72
2021/12/23 05:22:01;;;;;;;28.80;22.58;;;;;;;-5.67;100.00;95780.72;4998463;28;24483;-72
2021/12/23 05:24:28;;;;;;;30.80;23.60;;;;;;;-5.70;100.00;95777.38;5012509;28;24479;-72
2021/12/23 05:26:54;;;;;;;27.67;22.25;;;;;;;-5.68;100.00;95781.56;5012430;28;24905;-71
2021/12/23 05:29:22;;;;;;;27.17;21.60;;;;;;;-5.51;100.00;95771.47;5012641;28;24973;-72
2021/12/23 05:31:49;;;;;;;34.03;22.25;;;;;;;-5.56;100.00;95758.03;5012569;28;24440;-72
2021/12/23 05:34:15;;;;;;;30.73;23.42;;;;;;;-5.63;100.00;95757.19;4996258;28;24483;-71
2021/12/23 05:36:42;;;;;;;26.63;20.77;;;;;;;-5.58;100.00;95757.16;5012500;28;24455;-71
2021/12/23 05:39:09;;;;;;;25.70;21.25;;;;;;;-5.48;100.00;95751.28;5012610;28;25057;-71
2021/12/23 05:41:35;;;;;;;26.20;20.97;;;;;;;-5.46;100.00;95756.31;5012590;28;24575;-71
2021/12/23 05:44:02;;;;;;;30.67;20.30;;;;;;;-5.33;100.00;95745.38;5012705;28;24460;-72
2021/12/23 05:46:30;;;;;;;25.13;21.10;;;;;;;-5.29;100.00;95749.56;5012130;28;24527;-73
2021/12/23 05:48:57;;;;;;;23.98;20.10;;;;;;;-5.23;100.00;95744.53;5012457;28;24453;-73
2021/12/23 05:51:23;;;;;;;25.02;20.55;;;;;;;-5.22;100.00;95735.25;5009857;28;24436;-72
2021/12/23 05:53:50;;;;;;;25.85;21.35;;;;;;;-5.37;100.00;95728.56;5009632;28;24440;-72
2021/12/23 05:56:16;;;;;;;26.25;21.13;;;;;;;-5.30;100.00;95727.69;5011842;28;25040;-72
2021/12/23 05:58:42;;;;;;;25.98;20.90;;;;;;;-5.33;100.00;95732.75;5012636;28;24429;-73
2021/12/23 06:01:09;;;;;;;25.73;20.08;;;;;;;-5.21;100.00;95732.72;5012289;28;24440;-72
2021/12/23 06:03:39;;;;;;;26.33;18.98;;;;;;;-5.20;100.00;95734.38;5011834;28;24432;-72
2021/12/23 06:06:05;;;;;;;27.08;19.73;;;;;;;-5.18;100.00;95736.94;5011724;28;24452;-72
2021/12/23 06:08:32;;;;;;;25.35;20.33;;;;;;;-5.18;100.00;95731.88;5011208;28;24436;-72
2021/12/23 06:10:58;;;;;;;22.77;19.83;;;;;;;-5.35;100.00;95731.91;5011764;28;24440;-72
2021/12/23 06:13:25;;;;;;;21.38;19.05;;;;;;;-5.27;100.00;95722.63;5011552;28;25032;-72
2021/12/23 06:15:51;;;;;;;25.85;19.40;;;;;;;-5.27;100.00;95731.88;5011739;28;24443;-72
2021/12/23 06:18:18;;;;;;;24.88;20.73;;;;;;;-5.30;100.00;95736.94;5011788;28;24445;-72
2021/12/23 06:20:45;;;;;;;29.50;21.05;;;;;;;-5.48;100.00;95745.41;5011697;28;24444;-72
2021/12/23 06:23:12;;;;;;;25.52;19.98;;;;;;;-5.42;100.00;95738.63;5011881;28;24973;-72
2021/12/23 06:25:38;;;;;;;27.02;20.77;;;;;;;-5.46;100.00;95731.06;5011285;28;24444;-73
2021/12/23 06:28:05;;;;;;;23.40;20.65;;;;;;;-5.68;100.00;95743.72;5010895;28;24523;-72
2021/12/23 06:30:31;;;;;;;31.17;21.90;;;;;;;-5.74;100.00;95751.28;5011652;28;24440;-72
2021/12/23 06:32:58;;;;;;;27.65;21.73;;;;;;;-5.64;100.00;95752.13;5011927;28;24523;-72
2021/12/23 06:35:27;;;;;;;25.67;21.42;;;;;;;-5.73;100.00;95739.53;5011330;28;24433;-72
2021/12/23 06:37:56;;;;;;;36.75;22.23;;;;;;;-5.72;100.00;95728.56;5011388;28;24440;-72
2021/12/23 06:40:23;;;;;;;25.63;21.98;;;;;;;-5.79;100.00;95732.78;5011231;28;24449;-71
2021/12/23 06:42:50;;;;;;;31.77;23.35;;;;;;;-5.83;100.00;95728.56;5011868;28;24444;-72
2021/12/23 06:45:17;;;;;;;27.70;21.85;;;;;;;-5.88;100.00;95731.09;5011177;28;24811;-72
2021/12/23 06:47:44;;;;;;;27.07;22.57;;;;;;;-5.87;100.00;95726.91;5011218;28;25253;-72
2021/12/23 06:50:13;;;;;;;32.95;25.13;;;;;;;-5.88;100.00;95735.31;5011458;28;24424;-72
2021/12/23 06:52:40;;;;;;;27.27;22.88;;;;;;;-5.85;100.00;95733.63;5009980;28;24443;-72
2021/12/23 06:55:11;;;;;;;31.30;23.17;;;;;;;-5.82;100.00;95735.31;5011473;28;24830;-73
2021/12/23 06:57:38;;;;;;;24.80;20.40;;;;;;;-5.74;100.00;95737.84;5012101;28;24444;-73
2021/12/23 07:00:05;;;;;;;29.27;18.88;;;;;;;-5.63;100.00;95731.94;5011539;28;24564;-74
2021/12/23 07:02:34;;;;;;;19.90;17.73;;;;;;;-5.56;100.00;95720.19;5010767;28;24433;-73
2021/12/23 07:05:00;;;;;;;25.60;17.85;;;;;;;-5.53;100.00;95722.66;5010816;28;24452;-73
2021/12/23 07:07:29;;;;;;;25.55;18.35;;;;;;;-5.55;100.00;95724.38;5010237;28;24443;-73
2021/12/23 07:09:56;;;;;;;22.17;18.57;;;;;;;-5.55;100.00;95721.84;5010756;28;24519;-72
2021/12/23 07:12:24;;;;;;;20.70;18.42;;;;;;;-5.55;100.00;95715.97;5010951;28;25004;-75
2021/12/23 07:14:51;;;;;;;22.10;18.15;;;;;;;-5.47;100.00;95720.16;5010466;28;24433;-71
2021/12/23 07:17:17;;;;;;;26.83;19.10;;;;;;;-5.58;100.00;95721.84;5011600;28;25004;-75
2021/12/23 07:19:44;;;;;;;24.17;18.23;;;;;;;-5.68;100.00;95728.56;5022845;28;24440;-73
2021/12/23 07:22:10;;;;;;;24.08;17.67;;;;;;;-5.66;100.00;95726.06;5020395;28;24482;-74
2021/12/23 07:24:37;;;;;;;20.10;17.10;;;;;;;-5.61;100.00;95734.47;5010746;28;24506;-74
2021/12/23 07:27:04;;;;;;;26.45;18.38;;;;;;;-5.62;100.00;95733.63;5011112;28;24475;-73
2021/12/23 07:29:32;;;;;;;23.27;17.80;;;;;;;-5.66;100.00;95724.38;5011129;28;24452;-73
2021/12/23 07:31:59;;;;;;;21.90;17.35;;;;;;;-5.72;100.00;95734.47;5011007;28;24428;-72
2021/12/23 07:34:26;;;;;;;22.65;17.35;;;;;;;-5.70;100.00;95725.22;5011324;28;25053;-72
2021/12/23 07:36:53;;;;;;;23.70;17.58;;;;;;;-5.68;100.00;95721.00;5011233;28;24429;-73
2021/12/23 07:39:19;;;;;;;21.50;16.95;;;;;;;-5.63;100.00;95726.91;5018315;28;25013;-73
2021/12/23 07:41:46;;;;;;;22.50;17.00;;;;;;;-5.60;100.00;95726.03;5015490;28;25004;-72
2021/12/23 07:44:20;;;;;;;20.38;17.38;;;;;;;-5.55;100.00;95728.59;5013047;28;24423;-72
2021/12/23 07:46:49;;;;;;;21.33;16.75;;;;;;;-5.48;100.00;95725.22;5030403;28;24455;-73
2021/12/23 07:49:16;;;;;;;19.98;17.15;;;;;;;-5.38;100.00;95714.22;5021113;28;24444;-72
2021/12/23 07:51:42;;;;;;;25.40;16.13;;;;;;;-5.30;100.00;95712.56;5028226;28;24432;-73
2021/12/23 07:54:09;;;;;;;19.10;16.00;;;;;;;-5.24;100.00;95702.44;5026765;28;24428;-73
2021/12/23 07:56:36;;;;;;;20.00;16.27;;;;;;;-5.06;100.00;95721.72;5010681;28;24451;-73
2021/12/23 07:59:04;;;;;;;23.40;17.40;;;;;;;-5.15;100.00;95722.63;5010912;28;24431;-73
2021/12/23 08:01:30;;;;;;;21.05;15.57;;;;;;;-5.07;100.00;95715.00;5010832;28;24431;-72
2021/12/23 08:03:58;;;;;;;16.30;14.57;;;;;;;-4.88;100.00;95719.16;5007384;28;24996;-73
2021/12/23 08:06:24;;;;;;;16.17;14.13;;;;;;;-4.66;100.00;95719.91;5003569;28;24483;-72
2021/12/23 08:08:51;;;;;;;20.52;16.73;;;;;;;-4.54;100.00;95716.47;5004758;28;24498;-72
2021/12/23 08:11:17;;;;;;;18.40;16.50;;;;;;;-4.46;100.00;95711.38;5005156;28;24436;-73
2021/12/23 08:13:44;;;;;;;20.27;16.08;;;;;;;-4.46;100.00;95713.91;5012142;28;24451;-72
2021/12/23 08:16:10;;;;;;;21.25;15.73;;;;;;;-4.53;100.00;95712.25;5026732;28;24443;-73
2021/12/23 08:18:37;;;;;;;21.05;16.33;;;;;;;-4.57;100.00;95708.91;5011085;28;24494;-73
2021/12/23 08:21:05;;;;;;;19.77;16.07;;;;;;;-4.65;100.00;95695.47;5018864;28;24424;-73
2021/12/23 08:23:31;;;;;;;18.17;15.35;;;;;;;-4.66;100.00;95697.16;5018217;28;24432;-73
2021/12/23 08:26:02;;;;;;;17.02;15.30;;;;;;;-4.66;100.00;95694.63;5026199;28;24454;-73
2021/12/23 08:28:29;;;;;;;19.40;15.88;;;;;;;-4.68;100.00;95700.53;4997954;28;24432;-73
2021/12/23 08:30:56;;;;;;;19.58;15.73;;;;;;;-4.64;100.00;95692.91;5017601;28;24435;-72
2021/12/23 08:33:22;;;;;;;20.05;15.13;;;;;;;-4.57;100.00;95690.38;5001707;28;24433;-73
2021/12/23 08:35:49;;;;;;;20.70;14.65;;;;;;;-4.56;100.00;95695.44;5022977;28;24428;-72
2021/12/23 08:38:16;;;;;;;22.43;16.03;;;;;;;-4.58;100.00;95698.81;4999388;28;24581;-73
2021/12/23 08:40:43;;;;;;;18.88;15.40;;;;;;;-4.56;100.00;95707.19;5010289;28;24428;-73
2021/12/23 08:43:10;;;;;;;18.33;15.00;;;;;;;-4.50;100.00;95699.59;5002021;28;24483;-73
2021/12/23 08:45:36;;;;;;;16.83;13.98;;;;;;;-4.38;100.00;95697.81;5004728;28;24444;-73
2021/12/23 08:48:03;;;;;;;16.25;13.85;;;;;;;-4.34;100.00;95691.06;5007627;28;24491;-73
2021/12/23 08:50:32;;;;;;;20.95;14.63;;;;;;;-4.23;100.00;95696.06;5022608;28;24478;-73
2021/12/23 08:52:59;;;;;;;18.38;13.80;;;;;;;-4.09;100.00;95680.78;5018417;28;24440;-72
2021/12/23 08:55:31;;;;;;;15.18;13.60;;;;;;;-4.07;100.00;95679.94;5001557;28;24997;-72
2021/12/23 08:57:59;;;;;;;14.70;13.20;;;;;;;-3.97;100.00;95675.63;4994846;28;24435;-73
2021/12/23 09:00:26;;;;;;;13.38;11.85;;;;;;;-3.81;100.00;95683.97;5024735;28;24432;-73
2021/12/23 09:02:53;;;;;;;13.32;11.90;;;;;;;-3.72;100.00;95687.22;5020958;28;24523;-73
2021/12/23 09:05:21;;;;;;;15.03;11.80;;;;;;;-3.63;100.00;95677.88;5017018;28;24850;-73
2021/12/23 09:07:47;;;;;;;18.48;13.45;;;;;;;-3.58;100.00;95678.69;5025210;28;24526;-72
2021/12/23 09:10:15;;;;;;;18.92;14.15;;;;;;;-3.53;100.00;95675.25;5033442;28;24435;-73
2021/12/23 09:12:43;;;;;;;20.33;13.75;;;;;;;-3.49;100.00;95681.13;5030583;28;24438;-73
2021/12/23 09:15:11;;;;;;;16.50;13.18;;;;;;;-3.38;100.00;95673.41;5011052;28;24432;-73
2021/12/23 09:17:39;;;;;;;14.57;11.98;;;;;;;-3.31;100.00;95673.34;5012020;28;24440;-73
2021/12/23 09:20:11;;;;;;;15.93;12.77;;;;;;;-3.27;100.00;95667.38;5011860;28;24444;-73
2021/12/23 09:22:37;;;;;;;16.52;12.48;;;;;;;-3.21;100.00;95669.03;5011697;28;24799;-73
2021/12/23 09:25:10;;;;;;;15.88;13.70;;;;;;;-3.26;100.00;95671.63;5011458;28;24448;-72
2021/12/23 09:27:42;;;;;;;16.15;13.05;;;;;;;-3.23;100.00;95674.09;5009853;28;24443;-73
2021/12/23 09:32:56;;;;;;;14.18;12.20;;;;;;;-3.04;100.00;95667.16;5010245;28;25337;-73
2021/12/23 09:35:28;;;;;;;33.80;20.90;;;;;;;-2.88;100.00;95664.44;5010350;28;24518;-73
2021/12/23 09:37:54;;;;;;;17.83;13.07;;;;;;;-2.70;100.00;95667.56;5011247;28;24435;-73
2021/12/23 09:40:23;;;;;;;20.80;14.13;;;;;;;-2.60;100.00;95663.19;5010910;28;24447;-73
2021/12/23 09:42:50;;;;;;;15.02;11.18;;;;;;;-2.51;100.00;95652.94;5011308;28;24995;-73
2021/12/23 09:45:19;;;;;;;18.30;12.88;;;;;;;-2.34;100.00;95665.38;5010192;28;24464;-73
2021/12/23 09:47:47;;;;;;;17.77;13.20;;;;;;;-2.21;100.00;95653.38;5009719;28;24825;-74
2021/12/23 09:50:17;;;;;;;15.70;11.73;;;;;;;-2.07;100.00;95654.00;5008979;28;24444;-73
2021/12/23 09:52:46;;;;;;;14.73;10.70;;;;;;;-1.98;100.00;95658.06;5010576;28;24460;-73
2021/12/23 09:55:15;;;;;;;15.32;11.63;;;;;;;-1.94;100.00;95654.63;5009748;28;24436;-74
2021/12/23 09:57:42;;;;;;;15.43;12.68;;;;;;;-1.85;100.00;95648.59;5006983;28;24441;-73
2021/12/23 10:00:11;;;;;;;16.23;12.73;;;;;;;-1.78;100.00;95639.97;5006305;28;24440;-73
2021/12/23 10:02:42;;;;;;;13.50;10.82;;;;;;;-1.70;100.00;95633.09;5009093;28;24440;-73
2021/12/23 10:05:10;;;;;;;13.38;11.15;;;;;;;-1.66;100.00;95637.25;5009772;28;24546;-74
2021/12/23 10:07:36;;;;;;;18.33;11.57;;;;;;;-1.63;100.00;95638.88;5007888;28;24996;-73
2021/12/23 10:10:10;;;;;;;13.80;11.73;;;;;;;-1.64;100.00;95642.28;5008646;28;24452;-73
2021/12/23 10:27:33;;;;;;;15.02;11.57;;;;;;;-1.43;100.00;95623.31;5011544;28;24467;-74
2021/12/23 10:33:13;;;;;;;11.57;9.70;;;;;;;-1.23;100.00;95624.56;5013063;28;24439;-74
2021/12/23 10:38:31;;;;;;;19.67;15.57;;;;;;;-0.96;100.00;95635.09;5005326;28;24506;-73
2021/12/23 10:41:01;;;;;;;12.20;10.18;;;;;;;-0.78;100.00;95634.72;5005259;28;24440;-74
2021/12/23 10:43:32;;;;;;;12.85;10.00;;;;;;;-0.63;100.00;95630.16;5011578;28;24955;-74
2021/12/23 10:46:02;;;;;;;11.32;9.55;;;;;;;-0.59;100.00;95622.47;4999820;28;24453;-74
2021/12/23 10:48:32;;;;;;;12.20;10.60;;;;;;;-0.56;100.00;95618.97;4991810;28;25068;-73
2021/12/23 10:51:05;;;;;;;12.07;9.93;;;;;;;-0.53;100.00;95624.84;4991860;28;24428;-75
2021/12/23 10:53:47;;;;;;;12.85;9.43;;;;;;;-0.49;100.00;95601.00;4991955;28;24420;-73
2021/12/23 10:59:15;;;;;;;12.60;9.75;;;;;;;-0.35;100.00;95597.31;5011152;28;25003;-74
2021/12/23 11:02:07;;;;;;;12.07;9.80;;;;;;;-0.34;100.00;95601.53;5011480;28;24432;-73
2021/12/23 11:04:51;;;;;;;12.07;10.20;;;;;;;-0.31;100.00;95597.22;5010978;28;24424;-72
2021/12/23 11:07:24;;;;;;;14.98;10.63;;;;;;;-0.28;100.00;95584.44;5018688;28;24448;-74
2021/12/23 11:10:03;;;;;;;13.25;9.40;;;;;;;-0.26;100.00;95574.19;5020732;28;24436;-75
2021/12/23 11:37:42;;;;;;;10.30;7.65;;;;;;;0.53;100.00;95538.25;5016302;28;24427;-73
2021/12/23 11:40:24;;;;;;;12.18;8.05;;;;;;;0.57;100.00;95529.63;4997881;28;24433;-72
2021/12/23 11:43:13;;;;;;;11.57;7.83;;;;;;;0.59;100.00;95527.03;4999395;28;24436;-73
2021/12/23 11:45:43;;;;;;;13.45;9.02;;;;;;;0.61;100.00;95527.84;5025119;28;24492;-73
2021/12/23 11:48:10;;;;;;;11.00;8.85;;;;;;;0.64;100.00;95526.03;5013913;28;24444;-73
2021/12/23 11:50:52;;;;;;;10.70;8.32;;;;;;;0.69;100.00;95516.53;5023409;28;24443;-73
2021/12/23 11:53:19;;;;;;;10.48;7.80;;;;;;;0.72;100.00;95513.06;5010425;28;24527;-73
2021/12/23 11:55:48;;;;;;;8.73;7.90;;;;;;;0.75;100.00;95510.44;5025937;28;24432;-73
2021/12/23 11:58:15;;;;;;;10.63;8.02;;;;;;;0.76;100.00;95488.34;4997726;28;24424;-73
2021/12/23 12:00:42;;;;;;;11.30;7.93;;;;;;;0.79;100.00;95488.25;5021414;28;24439;-73
2021/12/23 12:03:11;;;;;;;11.23;8.97;;;;;;;0.84;100.00;95488.94;5023587;28;24442;-73
2021/12/23 12:05:38;;;;;;;9.35;7.88;;;;;;;0.87;100.00;95482.03;5024999;28;24521;-73
2021/12/23 12:08:06;;;;;;;10.45;8.38;;;;;;;0.88;100.00;95482.88;5013791;28;24425;-73